Terminal Aerodrome Forecast
Issued by NWS

Current Version | Previous Version | Text Only | Print | Product List | Glossary On
Versions: 1 2 3 4 5 6 7 8 9 10 11 12 13 14 15
000
FTUS41 KPBZ 030708 AAA
TAFZZV
TAF AMD
KZZV 030708Z 0307/0406 23005KT P6SM SKC
     FM031100 23010KT P6SM VCSH BKN050
     FM031800 22012G20KT 6SM -SHRA VCTS BKN040CB
     FM040000 27008KT P6SM BKN040=

USA.gov is the U.S. government's official web portal to all federal, state and local government web resources and services.